Hafslundsøy, Norway

4:38 PM CET on February 13, 2016 (GMT +0100)
Hafslundsoy | | Change Station
CLOSE
Current Station
Personal Weather Station
Location: Sarpsborg, OSTFOLD
Elevation: 10 ft
Nearby Weather Stations

Elev 10 ft 59.28 °N, 11.14 °E | Updated 7 minutes ago

Scattered Clouds
Scattered Clouds
28.4 °F
Feels Like 28 °F
N
0.0
Wind Variable Wind from North
Gusts 6.0 mph

Today
High -- | Low -- °F
--% Chance of Precip.
Yesterday
High -- | Low -- °F
Precip. -- in
Pressure 29.47 in
Visibility 6.2 miles
Clouds Scattered Clouds 2400 ft
Windchill 28 °F
Dew Point 22 °F
Humidity 77%
Rainfall 0.00 in
Snow Depth Not available.
7:57 AM 5:02 PM
Waxing Crescent, 31% visible
METAR ENRY 131520Z 36003KT 9999 SCT024 M03/M07 Q0998
Pressure 29.47 in
Visibility 6.2 miles
Clouds Scattered Clouds 2400 ft
Windchill 28 °F
Dew Point 22 °F
Humidity 77%
Rainfall 0.00 in
Snow Depth Not available.
7:57 AM 5:02 PM
Waxing Crescent, 31% visible
METAR ENRY 131520Z 36003KT 9999 SCT024 M03/M07 Q0998

10-Day Weather Forecast

Almanac

Astronomy

Feb. 13, 2016 Rise Set
Actual Time
Civil Twilight
Nautical Twilight
Astronomical Twilight
Moon
Length of Visible Light
Length of Day
Tomorrow will be .
, % of the Moon is Illuminated

Today's Extremes

Country Highs Country Lows

Community

WunderPhotos

Upload Photos

1,892,585 photos uploaded!

WunderBlog® & News

Nearby

Air Quality

  Air Quality AQ Index Pollutant
Not available.

Snow Depth

Station Depth Elevation

Earthquake Activity

City Distance Mag. Time & Date
Minimum magnitude displayed is 2.5.

Coastal Water Temperatures

Place Temperature

Stations

Nearby Weather Stations

Station Location Temp. Windchill Dew Point Humidity Wind Precip. Elev Updated Type